EJU49HG LSZH-LEPA
Flight info
| Callsign | EJU49HG |
|---|---|
| Flight time | 1h 27m |
| Altitude | 37000 |
| Route | VEBIT T50 ROTOS Z669 ULMES DCT VADAR DCT GEVEA DCT INCUS DCT BALSI DCT RETNO DCT TUPOX DCT MTG DCT DIVKO DCT VATIR DCT PIVUS DCT BODEQ DCT VERSO L129 LUNIK |
| Aircraft | A320/M-SDE2E3FGHIJ1RWXYZ/LB1 |
Departure
| Time | 2026-05-04 00:38 |
|---|---|
| Airport | Zürich Airport (LSZH) |
Arrival
| Time | 2026-05-04 02:05 |
|---|---|
| Airport | Palma de Mallorca Airport (LEPA) |
| Time | Latitude | Longitude | Altitude | Speed | Heading |
|---|---|---|---|---|---|
| 2026-05-04 00:38 | 47.36747 | 8.28662 | 8581 ft | 287 kts | 243° |
| 2026-05-04 00:38 | 47.35827 | 8.25879 | 9373 ft | 291 kts | 241° |
| 2026-05-04 00:38 | 47.34928 | 8.23273 | 10114 ft | 294 kts | 241° |
| 2026-05-04 00:38 | 47.33945 | 8.20467 | 10740 ft | 304 kts | 240° |
| 2026-05-04 00:39 | 47.32892 | 8.17496 | 11300 ft | 315 kts | 240° |
| 2026-05-04 00:39 | 47.31842 | 8.14542 | 12094 ft | 317 kts | 240° |
| 2026-05-04 00:39 | 47.30791 | 8.11586 | 12882 ft | 317 kts | 241° |
| 2026-05-04 00:39 | 47.29768 | 8.08706 | 13642 ft | 318 kts | 240° |
| 2026-05-04 00:40 | 47.28695 | 8.05691 | 14387 ft | 319 kts | 241° |
| 2026-05-04 00:40 | 47.27631 | 8.02706 | 15058 ft | 321 kts | 241° |
| 2026-05-04 00:40 | 47.26622 | 7.99650 | 15720 ft | 325 kts | 245° |
| 2026-05-04 00:40 | 47.25723 | 7.96492 | 16375 ft | 327 kts | 246° |
| 2026-05-04 00:41 | 47.24827 | 7.93276 | 17011 ft | 329 kts | 246° |
| 2026-05-04 00:41 | 47.23929 | 7.90054 | 17632 ft | 331 kts | 246° |
| 2026-05-04 00:41 | 47.23025 | 7.86824 | 18229 ft | 334 kts | 246° |
| 2026-05-04 00:41 | 47.22102 | 7.83527 | 18823 ft | 336 kts | 246° |
| 2026-05-04 00:42 | 47.21183 | 7.80256 | 19393 ft | 338 kts | 246° |
| 2026-05-04 00:42 | 47.20257 | 7.76966 | 19961 ft | 340 kts | 246° |
| 2026-05-04 00:42 | 47.19236 | 7.73757 | 20514 ft | 341 kts | 240° |
| 2026-05-04 00:42 | 47.17990 | 7.70740 | 21060 ft | 342 kts | 235° |
| 2026-05-04 00:43 | 47.16532 | 7.67880 | 21585 ft | 343 kts | 232° |
| 2026-05-04 00:43 | 47.15007 | 7.65050 | 22095 ft | 345 kts | 231° |
| 2026-05-04 00:43 | 47.13482 | 7.62241 | 22569 ft | 348 kts | 231° |
| 2026-05-04 00:43 | 47.11917 | 7.59355 | 23062 ft | 350 kts | 231° |
| 2026-05-04 00:44 | 47.10373 | 7.56506 | 23532 ft | 352 kts | 232° |
| 2026-05-04 00:44 | 47.08801 | 7.53602 | 24017 ft | 354 kts | 232° |
| 2026-05-04 00:44 | 47.07222 | 7.50690 | 24462 ft | 357 kts | 232° |
| 2026-05-04 00:44 | 47.05641 | 7.47775 | 24900 ft | 359 kts | 232° |
| 2026-05-04 00:45 | 47.04040 | 7.44829 | 25359 ft | 360 kts | 232° |
| 2026-05-04 00:45 | 47.02424 | 7.41855 | 25791 ft | 363 kts | 232° |
| 2026-05-04 00:45 | 47.00822 | 7.38922 | 26201 ft | 365 kts | 232° |
| 2026-05-04 00:45 | 46.99200 | 7.35960 | 26613 ft | 366 kts | 232° |
| 2026-05-04 00:46 | 46.97568 | 7.32986 | 27024 ft | 368 kts | 231° |
| 2026-05-04 00:46 | 46.95963 | 7.30060 | 27423 ft | 370 kts | 231° |
| 2026-05-04 00:46 | 46.94318 | 7.27062 | 27811 ft | 372 kts | 231° |
| 2026-05-04 00:46 | 46.92680 | 7.24070 | 28177 ft | 374 kts | 231° |
| 2026-05-04 00:47 | 46.91035 | 7.21067 | 28537 ft | 376 kts | 231° |
| 2026-05-04 00:47 | 46.89373 | 7.18040 | 28904 ft | 377 kts | 231° |
| 2026-05-04 00:47 | 46.87723 | 7.15036 | 29259 ft | 379 kts | 231° |
| 2026-05-04 00:47 | 46.86056 | 7.12005 | 29596 ft | 381 kts | 231° |
| 2026-05-04 00:48 | 46.84323 | 7.08859 | 29930 ft | 383 kts | 231° |
| 2026-05-04 00:48 | 46.82640 | 7.05804 | 30252 ft | 385 kts | 231° |
| 2026-05-04 00:48 | 46.80896 | 7.02647 | 30582 ft | 386 kts | 231° |
| 2026-05-04 00:48 | 46.79166 | 6.99514 | 30900 ft | 387 kts | 231° |
| 2026-05-04 00:49 | 46.77469 | 6.96445 | 31213 ft | 389 kts | 231° |
| 2026-05-04 00:49 | 46.75735 | 6.93310 | 31513 ft | 390 kts | 231° |
| 2026-05-04 00:49 | 46.74018 | 6.90214 | 31807 ft | 391 kts | 231° |
| 2026-05-04 00:49 | 46.72278 | 6.87078 | 32100 ft | 392 kts | 231° |
| 2026-05-04 00:50 | 46.70547 | 6.83964 | 32368 ft | 393 kts | 231° |
| 2026-05-04 00:50 | 46.68823 | 6.80867 | 32621 ft | 394 kts | 231° |
| 2026-05-04 00:50 | 46.67077 | 6.77734 | 32855 ft | 396 kts | 231° |
| 2026-05-04 00:50 | 46.65297 | 6.74677 | 33090 ft | 397 kts | 229° |
| 2026-05-04 00:51 | 46.63420 | 6.71731 | 33317 ft | 399 kts | 227° |
| 2026-05-04 00:51 | 46.61504 | 6.68746 | 33557 ft | 399 kts | 227° |
| 2026-05-04 00:51 | 46.59596 | 6.65778 | 33771 ft | 400 kts | 227° |
| 2026-05-04 00:51 | 46.57638 | 6.62736 | 34018 ft | 401 kts | 227° |
| 2026-05-04 00:52 | 46.55688 | 6.59709 | 34314 ft | 399 kts | 227° |
| 2026-05-04 00:52 | 46.53723 | 6.56665 | 34614 ft | 398 kts | 227° |
| 2026-05-04 00:52 | 46.51746 | 6.53606 | 34856 ft | 397 kts | 227° |
| 2026-05-04 00:52 | 46.49779 | 6.50566 | 35067 ft | 397 kts | 227° |
| 2026-05-04 00:53 | 46.47821 | 6.47545 | 35248 ft | 397 kts | 227° |
| 2026-05-04 00:53 | 46.45845 | 6.44499 | 35400 ft | 398 kts | 227° |
| 2026-05-04 00:53 | 46.43851 | 6.41429 | 35554 ft | 399 kts | 227° |
| 2026-05-04 00:53 | 46.41869 | 6.38380 | 35690 ft | 399 kts | 227° |
| 2026-05-04 00:54 | 46.39867 | 6.35303 | 35834 ft | 400 kts | 227° |
| 2026-05-04 00:54 | 46.37830 | 6.32177 | 35979 ft | 401 kts | 226° |
| 2026-05-04 00:54 | 46.35815 | 6.29090 | 36099 ft | 402 kts | 226° |
| 2026-05-04 00:54 | 46.33775 | 6.25967 | 36239 ft | 402 kts | 227° |
| 2026-05-04 00:55 | 46.31760 | 6.22890 | 36364 ft | 402 kts | 226° |
| 2026-05-04 00:55 | 46.29586 | 6.19974 | 36473 ft | 404 kts | 220° |
| 2026-05-04 00:55 | 46.27185 | 6.17393 | 36593 ft | 405 kts | 214° |
| 2026-05-04 00:55 | 46.24644 | 6.15224 | 36698 ft | 407 kts | 209° |
| 2026-05-04 00:56 | 46.21886 | 6.13414 | 36839 ft | 409 kts | 203° |
| 2026-05-04 00:56 | 46.19056 | 6.12062 | 36959 ft | 411 kts | 198° |
| 2026-05-04 00:56 | 46.16099 | 6.11138 | 37043 ft | 414 kts | 193° |
| 2026-05-04 00:57 | 46.10032 | 6.09759 | 37040 ft | 416 kts | 192° |
| 2026-05-04 00:57 | 46.03979 | 6.08422 | 37043 ft | 416 kts | 192° |
| 2026-05-04 00:58 | 45.97929 | 6.07081 | 37043 ft | 416 kts | 192° |
| 2026-05-04 00:58 | 45.91834 | 6.05730 | 37044 ft | 417 kts | 192° |
| 2026-05-04 00:59 | 45.85790 | 6.04395 | 37042 ft | 416 kts | 192° |
| 2026-05-04 00:59 | 45.79750 | 6.03057 | 37042 ft | 416 kts | 192° |
| 2026-05-04 01:00 | 45.73714 | 6.01721 | 37047 ft | 416 kts | 192° |
| 2026-05-04 01:00 | 45.67788 | 6.00414 | 37050 ft | 416 kts | 192° |
| 2026-05-04 01:01 | 45.61832 | 5.99107 | 37043 ft | 416 kts | 192° |
| 2026-05-04 01:01 | 45.55850 | 5.97796 | 37046 ft | 416 kts | 192° |
| 2026-05-04 01:02 | 45.49893 | 5.96493 | 37053 ft | 416 kts | 192° |
| 2026-05-04 01:02 | 45.44006 | 5.94839 | 37062 ft | 415 kts | 195° |
| 2026-05-04 01:03 | 45.38148 | 5.93009 | 37069 ft | 415 kts | 195° |
| 2026-05-04 01:03 | 45.32161 | 5.91149 | 37073 ft | 415 kts | 195° |
| 2026-05-04 01:04 | 45.26199 | 5.89297 | 37080 ft | 415 kts | 195° |
| 2026-05-04 01:04 | 45.20262 | 5.87455 | 37085 ft | 415 kts | 195° |
| 2026-05-04 01:05 | 45.14267 | 5.85598 | 37092 ft | 415 kts | 195° |
| 2026-05-04 01:05 | 45.08340 | 5.83765 | 37088 ft | 414 kts | 195° |
| 2026-05-04 01:06 | 45.02377 | 5.81925 | 37084 ft | 414 kts | 195° |
| 2026-05-04 01:06 | 44.96436 | 5.80093 | 37082 ft | 415 kts | 195° |
| 2026-05-04 01:07 | 44.90444 | 5.78252 | 37086 ft | 416 kts | 195° |
| 2026-05-04 01:07 | 44.84475 | 5.76422 | 37082 ft | 416 kts | 195° |
| 2026-05-04 01:08 | 44.78480 | 5.74588 | 37071 ft | 416 kts | 195° |
| 2026-05-04 01:08 | 44.72482 | 5.72756 | 37075 ft | 416 kts | 195° |
| 2026-05-04 01:09 | 44.66458 | 5.70920 | 37075 ft | 416 kts | 195° |
| 2026-05-04 01:09 | 44.60468 | 5.69099 | 37074 ft | 416 kts | 195° |
| 2026-05-04 01:10 | 44.54456 | 5.67278 | 37066 ft | 417 kts | 195° |
| 2026-05-04 01:10 | 44.48452 | 5.65466 | 37067 ft | 417 kts | 195° |
| 2026-05-04 01:11 | 44.42450 | 5.63653 | 37075 ft | 417 kts | 195° |
| 2026-05-04 01:11 | 44.36515 | 5.61383 | 37070 ft | 415 kts | 201° |
| 2026-05-04 01:12 | 44.30835 | 5.58365 | 37065 ft | 415 kts | 203° |
| 2026-05-04 01:12 | 44.25113 | 5.55239 | 37062 ft | 416 kts | 203° |
| 2026-05-04 01:13 | 44.19442 | 5.52144 | 37072 ft | 415 kts | 203° |
| 2026-05-04 01:13 | 44.13722 | 5.49029 | 37078 ft | 416 kts | 203° |
| 2026-05-04 01:14 | 44.08020 | 5.45928 | 37085 ft | 416 kts | 203° |
| 2026-05-04 01:14 | 44.02375 | 5.42865 | 37076 ft | 416 kts | 203° |
| 2026-05-04 01:15 | 43.96716 | 5.39799 | 37068 ft | 416 kts | 203° |
| 2026-05-04 01:15 | 43.91044 | 5.36724 | 37060 ft | 416 kts | 203° |
| 2026-05-04 01:16 | 43.85341 | 5.33642 | 37053 ft | 416 kts | 203° |
| 2026-05-04 01:16 | 43.79705 | 5.30602 | 37038 ft | 416 kts | 203° |
| 2026-05-04 01:17 | 43.74082 | 5.27575 | 37043 ft | 417 kts | 203° |
| 2026-05-04 01:17 | 43.68424 | 5.24538 | 37040 ft | 417 kts | 203° |
| 2026-05-04 01:18 | 43.63010 | 5.21638 | 37039 ft | 417 kts | 203° |
| 2026-05-04 01:18 | 43.57511 | 5.18699 | 37034 ft | 417 kts | 203° |
| 2026-05-04 01:19 | 43.51987 | 5.15750 | 37034 ft | 418 kts | 203° |
| 2026-05-04 01:19 | 43.46475 | 5.12816 | 37044 ft | 418 kts | 203° |
| 2026-05-04 01:20 | 43.41099 | 5.09761 | 37041 ft | 416 kts | 207° |
| 2026-05-04 01:20 | 43.36006 | 5.06016 | 37039 ft | 415 kts | 213° |
| 2026-05-04 01:21 | 43.31211 | 5.01638 | 37032 ft | 415 kts | 216° |
| 2026-05-04 01:21 | 43.26344 | 4.97061 | 37029 ft | 415 kts | 216° |
| 2026-05-04 01:22 | 43.21512 | 4.92525 | 37025 ft | 415 kts | 216° |
| 2026-05-04 01:22 | 43.16659 | 4.87976 | 37023 ft | 415 kts | 216° |
| 2026-05-04 01:23 | 43.11878 | 4.83502 | 37023 ft | 415 kts | 216° |
| 2026-05-04 01:23 | 43.06999 | 4.78957 | 37015 ft | 416 kts | 215° |
| 2026-05-04 01:24 | 43.01747 | 4.74719 | 37019 ft | 416 kts | 211° |
| 2026-05-04 01:24 | 42.96437 | 4.70686 | 37016 ft | 416 kts | 211° |
| 2026-05-04 01:25 | 42.91106 | 4.66644 | 37010 ft | 417 kts | 211° |
| 2026-05-04 01:25 | 42.85818 | 4.62649 | 37007 ft | 417 kts | 211° |
| 2026-05-04 01:26 | 42.80608 | 4.58718 | 37006 ft | 417 kts | 211° |
| 2026-05-04 01:26 | 42.75475 | 4.54855 | 37002 ft | 417 kts | 211° |
| 2026-05-04 01:27 | 42.70148 | 4.50853 | 37008 ft | 417 kts | 211° |
| 2026-05-04 01:27 | 42.64840 | 4.46871 | 37000 ft | 416 kts | 211° |
| 2026-05-04 01:28 | 42.59541 | 4.42907 | 36997 ft | 416 kts | 211° |
| 2026-05-04 01:28 | 42.54309 | 4.38999 | 36985 ft | 416 kts | 211° |
| 2026-05-04 01:29 | 42.49055 | 4.35082 | 36984 ft | 415 kts | 211° |
| 2026-05-04 01:29 | 42.43829 | 4.31196 | 36978 ft | 415 kts | 211° |
| 2026-05-04 01:30 | 42.38543 | 4.27271 | 36976 ft | 415 kts | 211° |
| 2026-05-04 01:30 | 42.33304 | 4.23388 | 36978 ft | 415 kts | 211° |
| 2026-05-04 01:31 | 42.28046 | 4.19501 | 36980 ft | 415 kts | 211° |
| 2026-05-04 01:31 | 42.22784 | 4.15617 | 36974 ft | 415 kts | 211° |
| 2026-05-04 01:32 | 42.17704 | 4.11873 | 36976 ft | 415 kts | 211° |
| 2026-05-04 01:32 | 42.12655 | 4.08159 | 36973 ft | 415 kts | 211° |
| 2026-05-04 01:33 | 42.07581 | 4.04433 | 36975 ft | 415 kts | 211° |
| 2026-05-04 01:33 | 42.02421 | 4.00655 | 36972 ft | 413 kts | 211° |
| 2026-05-04 01:34 | 41.97177 | 3.96990 | 36960 ft | 415 kts | 208° |
| 2026-05-04 01:34 | 41.91636 | 3.94021 | 36958 ft | 417 kts | 202° |
| 2026-05-04 01:35 | 41.85847 | 3.91883 | 36966 ft | 421 kts | 196° |
| 2026-05-04 01:35 | 41.80031 | 3.90480 | 36965 ft | 422 kts | 194° |
| 2026-05-04 01:36 | 41.74243 | 3.89141 | 36970 ft | 422 kts | 194° |
| 2026-05-04 01:36 | 41.68502 | 3.87816 | 36975 ft | 422 kts | 194° |
| 2026-05-04 01:37 | 41.62736 | 3.86491 | 36974 ft | 422 kts | 194° |
| 2026-05-04 01:37 | 41.56859 | 3.85136 | 36980 ft | 422 kts | 195° |
| 2026-05-04 01:38 | 41.51094 | 3.83811 | 36984 ft | 422 kts | 195° |
| 2026-05-04 01:38 | 41.45321 | 3.82487 | 36985 ft | 423 kts | 195° |
| 2026-05-04 01:39 | 41.39537 | 3.81166 | 36986 ft | 423 kts | 195° |
| 2026-05-04 01:39 | 41.33756 | 3.79849 | 36983 ft | 422 kts | 195° |
| 2026-05-04 01:40 | 41.28008 | 3.78541 | 36984 ft | 422 kts | 195° |
| 2026-05-04 01:40 | 41.22271 | 3.77238 | 36986 ft | 422 kts | 195° |
| 2026-05-04 01:41 | 41.16535 | 3.75725 | 36989 ft | 420 kts | 200° |
| 2026-05-04 01:41 | 41.11041 | 3.73448 | 36988 ft | 415 kts | 206° |
| 2026-05-04 01:42 | 41.05674 | 3.70683 | 36982 ft | 415 kts | 207° |
| 2026-05-04 01:42 | 41.00303 | 3.67919 | 36985 ft | 415 kts | 207° |
| 2026-05-04 01:43 | 40.94970 | 3.65180 | 36987 ft | 415 kts | 207° |
| 2026-05-04 01:43 | 40.89601 | 3.62424 | 36987 ft | 414 kts | 207° |
| 2026-05-04 01:44 | 40.84251 | 3.59688 | 36397 ft | 410 kts | 207° |
| 2026-05-04 01:44 | 40.81614 | 3.58338 | 35326 ft | 414 kts | 207° |
| 2026-05-04 01:44 | 40.78854 | 3.56921 | 33901 ft | 422 kts | 207° |
| 2026-05-04 01:44 | 40.75969 | 3.55438 | 32339 ft | 425 kts | 206° |
| 2026-05-04 01:45 | 40.73078 | 3.53960 | 31265 ft | 417 kts | 205° |
| 2026-05-04 01:45 | 40.70313 | 3.52556 | 30262 ft | 408 kts | 205° |
| 2026-05-04 01:45 | 40.64862 | 3.49792 | 28043 ft | 395 kts | 205° |
| 2026-05-04 01:46 | 40.62212 | 3.48448 | 26971 ft | 388 kts | 205° |
| 2026-05-04 01:46 | 40.59647 | 3.47146 | 25910 ft | 383 kts | 205° |
| 2026-05-04 01:46 | 40.57124 | 3.45868 | 24861 ft | 377 kts | 205° |
| 2026-05-04 01:46 | 40.54599 | 3.44587 | 24074 ft | 374 kts | 205° |
| 2026-05-04 01:47 | 40.52100 | 3.43323 | 23552 ft | 368 kts | 205° |
| 2026-05-04 01:47 | 40.49688 | 3.42104 | 23063 ft | 362 kts | 205° |
| 2026-05-04 01:47 | 40.47279 | 3.40886 | 22585 ft | 357 kts | 205° |
| 2026-05-04 01:47 | 40.44862 | 3.39856 | 22109 ft | 356 kts | 197° |
| 2026-05-04 01:48 | 40.42342 | 3.39379 | 21640 ft | 356 kts | 187° |
| 2026-05-04 01:48 | 40.39820 | 3.39397 | 21188 ft | 355 kts | 183° |
| 2026-05-04 01:48 | 40.37328 | 3.39539 | 20745 ft | 352 kts | 182° |
| 2026-05-04 01:48 | 40.34875 | 3.39694 | 20302 ft | 349 kts | 182° |
| 2026-05-04 01:49 | 40.32488 | 3.39842 | 19870 ft | 346 kts | 182° |
| 2026-05-04 01:49 | 40.30100 | 3.39984 | 19435 ft | 343 kts | 183° |
| 2026-05-04 01:49 | 40.27750 | 3.40122 | 19005 ft | 341 kts | 183° |
| 2026-05-04 01:49 | 40.25367 | 3.40259 | 18568 ft | 339 kts | 183° |
| 2026-05-04 01:50 | 40.23030 | 3.40392 | 18142 ft | 336 kts | 183° |
| 2026-05-04 01:50 | 40.20715 | 3.40525 | 17725 ft | 334 kts | 183° |
| 2026-05-04 01:50 | 40.18385 | 3.40658 | 17302 ft | 332 kts | 183° |
| 2026-05-04 01:50 | 40.16119 | 3.40786 | 16885 ft | 330 kts | 183° |
| 2026-05-04 01:51 | 40.13800 | 3.40919 | 16455 ft | 329 kts | 183° |
| 2026-05-04 01:51 | 40.11538 | 3.41049 | 16035 ft | 327 kts | 183° |
| 2026-05-04 01:51 | 40.09273 | 3.41177 | 15608 ft | 326 kts | 183° |
| 2026-05-04 01:51 | 40.07016 | 3.41304 | 15213 ft | 323 kts | 183° |
| 2026-05-04 01:52 | 40.04791 | 3.41433 | 14962 ft | 315 kts | 183° |
| 2026-05-04 01:52 | 40.02621 | 3.41558 | 14796 ft | 305 kts | 183° |
| 2026-05-04 01:52 | 40.00531 | 3.41675 | 14429 ft | 303 kts | 184° |
| 2026-05-04 01:52 | 39.98410 | 3.41792 | 14055 ft | 300 kts | 184° |
| 2026-05-04 01:53 | 39.96346 | 3.41906 | 13700 ft | 298 kts | 184° |
| 2026-05-04 01:53 | 39.94266 | 3.42021 | 13345 ft | 295 kts | 183° |
| 2026-05-04 01:53 | 39.92208 | 3.42135 | 12984 ft | 293 kts | 183° |
| 2026-05-04 01:53 | 39.90174 | 3.42248 | 12630 ft | 291 kts | 183° |
| 2026-05-04 01:54 | 39.88128 | 3.42363 | 12270 ft | 289 kts | 183° |
| 2026-05-04 01:54 | 39.86085 | 3.42478 | 11906 ft | 287 kts | 182° |
| 2026-05-04 01:54 | 39.84040 | 3.42591 | 11536 ft | 285 kts | 182° |
| 2026-05-04 01:54 | 39.82016 | 3.42705 | 11162 ft | 284 kts | 182° |
| 2026-05-04 01:55 | 39.79980 | 3.42819 | 10780 ft | 283 kts | 182° |
| 2026-05-04 01:55 | 39.77957 | 3.42934 | 10402 ft | 282 kts | 181° |
| 2026-05-04 01:55 | 39.75932 | 3.43049 | 10030 ft | 280 kts | 181° |
| 2026-05-04 01:55 | 39.73925 | 3.43152 | 9652 ft | 279 kts | 184° |
| 2026-05-04 01:56 | 39.72049 | 3.42643 | 9230 ft | 272 kts | 211° |
| 2026-05-04 01:56 | 39.70631 | 3.41020 | 8840 ft | 268 kts | 237° |
| 2026-05-04 01:56 | 39.69946 | 3.38738 | 8442 ft | 268 kts | 263° |
| 2026-05-04 01:56 | 39.69962 | 3.36251 | 8067 ft | 268 kts | 272° |
| 2026-05-04 01:57 | 39.70067 | 3.33748 | 7694 ft | 267 kts | 271° |
| 2026-05-04 01:57 | 39.70163 | 3.31260 | 7332 ft | 266 kts | 271° |
| 2026-05-04 01:57 | 39.70251 | 3.28771 | 6968 ft | 266 kts | 271° |
| 2026-05-04 01:57 | 39.70335 | 3.26252 | 6601 ft | 264 kts | 271° |
| 2026-05-04 01:58 | 39.70412 | 3.23799 | 6242 ft | 264 kts | 271° |
| 2026-05-04 01:58 | 39.70487 | 3.21400 | 5890 ft | 264 kts | 270° |
| 2026-05-04 01:58 | 39.70559 | 3.19027 | 5536 ft | 263 kts | 271° |
| 2026-05-04 01:58 | 39.70633 | 3.16633 | 5189 ft | 261 kts | 270° |
| 2026-05-04 01:59 | 39.70703 | 3.14300 | 4840 ft | 260 kts | 271° |
| 2026-05-04 01:59 | 39.70773 | 3.11936 | 4520 ft | 262 kts | 270° |
| 2026-05-04 01:59 | 39.70714 | 3.09606 | 4438 ft | 249 kts | 258° |
| 2026-05-04 01:59 | 39.70205 | 3.07497 | 4436 ft | 232 kts | 244° |
| 2026-05-04 02:00 | 39.69443 | 3.05597 | 4437 ft | 222 kts | 239° |
| 2026-05-04 02:00 | 39.68623 | 3.03752 | 4443 ft | 222 kts | 238° |
| 2026-05-04 02:00 | 39.67804 | 3.01988 | 4403 ft | 213 kts | 237° |
| 2026-05-04 02:00 | 39.67010 | 3.00310 | 4179 ft | 210 kts | 237° |
| 2026-05-04 02:01 | 39.66196 | 2.98604 | 3887 ft | 210 kts | 237° |
| 2026-05-04 02:01 | 39.65393 | 2.96921 | 3599 ft | 209 kts | 237° |
| 2026-05-04 02:01 | 39.64600 | 2.95260 | 3315 ft | 209 kts | 237° |
| 2026-05-04 02:01 | 39.63803 | 2.93588 | 3025 ft | 209 kts | 237° |
| 2026-05-04 02:02 | 39.62995 | 2.91891 | 2735 ft | 208 kts | 237° |
| 2026-05-04 02:02 | 39.62221 | 2.90262 | 2522 ft | 194 kts | 237° |
| 2026-05-04 02:02 | 39.61505 | 2.88752 | 2262 ft | 180 kts | 237° |
| 2026-05-04 02:02 | 39.60843 | 2.87356 | 1989 ft | 169 kts | 237° |
| 2026-05-04 02:03 | 39.60212 | 2.86026 | 1730 ft | 159 kts | 236° |
| 2026-05-04 02:03 | 39.59617 | 2.84771 | 1492 ft | 148 kts | 237° |
| 2026-05-04 02:03 | 39.59062 | 2.83602 | 1298 ft | 145 kts | 237° |
| 2026-05-04 02:03 | 39.58504 | 2.82427 | 1115 ft | 145 kts | 238° |
| 2026-05-04 02:04 | 39.57958 | 2.81274 | 928 ft | 145 kts | 238° |
| 2026-05-04 02:04 | 39.57413 | 2.80123 | 733 ft | 145 kts | 238° |
| 2026-05-04 02:04 | 39.56849 | 2.78935 | 526 ft | 145 kts | 238° |
| 2026-05-04 02:04 | 39.56303 | 2.77765 | 323 ft | 146 kts | 239° |
| 2026-05-04 02:05 | 39.55741 | 2.76588 | 118 ft | 145 kts | 239° |
| 2026-05-04 02:05 | 39.55187 | 2.75414 | 14 ft | 123 kts | 240° |
| 2026-05-04 02:05 | 39.54830 | 2.74671 | 23 ft | 75 kts | 240° |
| 2026-05-04 02:05 | 39.54612 | 2.74208 | 32 ft | 38 kts | 239° |
| 2026-05-04 02:06 | 39.54549 | 2.73938 | 34 ft | 25 kts | 270° |
| 2026-05-04 02:06 | 39.54552 | 2.73731 | 36 ft | 14 kts | 272° |
| 2026-05-04 02:06 | 39.54581 | 2.73641 | 36 ft | 10 kts | 321° |
| 2026-05-04 02:06 | 39.54653 | 2.73616 | 36 ft | 10 kts | 340° |
| 2026-05-04 02:07 | 39.54726 | 2.73564 | 34 ft | 12 kts | 326° |
| 2026-05-04 02:07 | 39.54779 | 2.73556 | 34 ft | 7 kts | 69° |
| 2026-05-04 02:07 | 39.54789 | 2.73599 | 34 ft | 2 kts | 44° |
| 2026-05-04 02:07 | 39.54798 | 2.73609 | 35 ft | 0 kts | 52° |